createdAt,value
2023-08-07T00:01:19.044Z,13.10
2023-08-07T00:03:20.924Z,13.10
2023-08-07T00:05:22.846Z,13.10
2023-08-07T00:07:26.774Z,13.20
2023-08-07T00:09:28.565Z,13.10
2023-08-07T00:11:30.476Z,13.10
2023-08-07T00:13:32.200Z,13.10
2023-08-07T00:15:36.824Z,13.10
2023-08-07T00:17:39.076Z,13.10
2023-08-07T00:19:40.897Z,13.10
2023-08-07T00:21:43.277Z,13.10
2023-08-07T00:23:45.033Z,13.10
2023-08-07T00:25:46.819Z,13.00
2023-08-07T00:27:48.619Z,13.00
2023-08-07T00:29:50.436Z,13.10
2023-08-07T00:31:52.176Z,13.00
2023-08-07T00:33:55.497Z,13.10
2023-08-07T00:35:57.406Z,13.00
2023-08-07T00:37:59.162Z,12.90
2023-08-07T00:40:00.927Z,12.90
2023-08-07T00:42:02.766Z,12.80
2023-08-07T00:44:04.772Z,12.80
2023-08-07T00:46:06.656Z,12.90
2023-08-07T00:48:08.600Z,12.80
2023-08-07T00:50:11.646Z,12.70
2023-08-07T00:52:13.646Z,12.70
2023-08-07T00:54:19.230Z,12.70
2023-08-07T00:56:21.549Z,12.60
2023-08-07T00:58:23.514Z,12.50
2023-08-07T01:00:26.123Z,12.60
2023-08-07T01:02:28.033Z,12.50
2023-08-07T01:04:29.956Z,12.50
2023-08-07T01:06:31.749Z,12.30
2023-08-07T01:08:33.766Z,12.30
2023-08-07T01:10:39.010Z,12.30
2023-08-07T01:12:52.183Z,12.30
2023-08-07T01:15:04.815Z,12.10
2023-08-07T01:17:15.527Z,12.00
2023-08-07T01:19:28.972Z,11.90
2023-08-07T01:21:33.114Z,11.90
2023-08-07T01:23:34.824Z,11.90
2023-08-07T01:25:39.214Z,11.90
2023-08-07T01:28:04.395Z,11.80
2023-08-07T01:30:29.913Z,11.70
2023-08-07T01:33:00.282Z,11.70
2023-08-07T01:35:04.205Z,11.80
2023-08-07T01:37:07.840Z,11.60
2023-08-07T01:39:10.114Z,11.60
2023-08-07T01:41:11.890Z,11.60
2023-08-07T01:43:13.668Z,11.60
2023-08-07T01:45:15.568Z,11.50
2023-08-07T01:47:17.375Z,11.50
2023-08-07T01:49:19.138Z,11.40
2023-08-07T01:51:20.938Z,11.40
2023-08-07T01:53:22.755Z,11.40
2023-08-07T01:55:24.837Z,11.50
2023-08-07T01:57:26.899Z,11.40
2023-08-07T01:59:28.712Z,11.40
2023-08-07T02:01:30.534Z,11.40
2023-08-07T02:03:32.508Z,11.30
2023-08-07T02:05:34.625Z,11.30
2023-08-07T02:07:36.391Z,11.20
2023-08-07T02:09:38.190Z,11.20
2023-08-07T02:11:39.938Z,11.20
2023-08-07T02:13:41.672Z,11.20
2023-08-07T02:15:43.553Z,11.20
2023-08-07T02:17:45.382Z,11.10
2023-08-07T02:19:47.176Z,11.10
2023-08-07T02:21:48.935Z,11.10
2023-08-07T02:23:50.680Z,11.10
2023-08-07T02:25:53.013Z,11.10
2023-08-07T02:27:54.853Z,11.00
2023-08-07T02:29:56.717Z,11.10
2023-08-07T02:31:58.522Z,11.10
2023-08-07T02:34:00.257Z,11.10
2023-08-07T02:36:02.093Z,11.00
2023-08-07T02:38:03.853Z,11.10
2023-08-07T02:40:06.132Z,11.10
2023-08-07T02:42:08.144Z,11.00
2023-08-07T02:44:09.965Z,11.10
2023-08-07T02:46:11.737Z,11.10
2023-08-07T02:48:13.516Z,11.00
2023-08-07T02:50:15.413Z,11.10
2023-08-07T02:52:17.184Z,11.10
2023-08-07T02:54:18.997Z,11.10
2023-08-07T02:56:20.789Z,11.00
2023-08-07T02:58:22.641Z,11.10
2023-08-07T03:00:24.572Z,11.10
2023-08-07T03:02:26.558Z,11.10
2023-08-07T03:04:28.466Z,11.10
2023-08-07T03:06:30.219Z,11.10
2023-08-07T03:08:31.982Z,11.20
2023-08-07T03:10:33.797Z,11.20
2023-08-07T03:12:35.577Z,11.20
2023-08-07T03:14:38.508Z,11.20
2023-08-07T03:16:40.331Z,11.20
2023-08-07T03:18:42.088Z,11.20
2023-08-07T03:20:44.584Z,11.20
2023-08-07T03:22:46.339Z,11.20
2023-08-07T03:24:49.259Z,11.20
2023-08-07T03:26:51.182Z,11.30
2023-08-07T03:28:53.029Z,11.30
2023-08-07T03:30:54.843Z,11.20
2023-08-07T03:32:56.584Z,11.30
2023-08-07T03:34:58.328Z,11.30
2023-08-07T03:37:00.654Z,11.30
2023-08-07T03:39:02.514Z,11.30
2023-08-07T03:41:04.824Z,11.30
2023-08-07T03:43:06.590Z,11.30
2023-08-07T03:45:08.893Z,11.30
2023-08-07T03:47:10.749Z,11.40
2023-08-07T03:49:12.649Z,11.40
2023-08-07T03:51:15.941Z,11.40
2023-08-07T03:53:17.728Z,11.40
2023-08-07T03:55:19.481Z,11.50
2023-08-07T03:57:21.393Z,11.40
2023-08-07T03:59:23.253Z,11.40
2023-08-07T04:01:25.186Z,11.50
2023-08-07T04:03:27.113Z,11.50
2023-08-07T04:05:28.953Z,11.50
2023-08-07T04:07:30.757Z,11.70
2023-08-07T04:09:33.297Z,11.50
2023-08-07T04:11:35.154Z,11.50
2023-08-07T04:13:36.994Z,11.50
2023-08-07T04:15:38.809Z,11.60
2023-08-07T04:17:40.647Z,11.60
2023-08-07T04:19:42.724Z,11.60
2023-08-07T04:21:44.501Z,11.60
2023-08-07T04:23:46.280Z,11.60
2023-08-07T04:25:54.245Z,11.60
2023-08-07T04:27:56.345Z,11.60
2023-08-07T04:29:59.216Z,11.60
2023-08-07T04:32:00.911Z,11.60
2023-08-07T04:34:02.697Z,11.70
2023-08-07T04:36:04.854Z,11.80
2023-08-07T04:38:06.824Z,11.70
2023-08-07T04:40:09.897Z,11.80
2023-08-07T04:42:11.659Z,11.80
2023-08-07T04:44:13.476Z,11.70
2023-08-07T04:46:15.809Z,11.70
2023-08-07T04:48:19.187Z,11.70
2023-08-07T04:50:21.265Z,11.80
2023-08-07T04:52:26.900Z,11.80
2023-08-07T04:54:28.939Z,11.80
2023-08-07T04:56:32.158Z,11.80
2023-08-07T04:58:34.301Z,11.80
2023-08-07T05:00:37.886Z,11.90
2023-08-07T05:02:39.810Z,12.00
2023-08-07T05:04:41.661Z,12.00
2023-08-07T05:06:43.534Z,12.00
2023-08-07T05:08:45.294Z,11.90
2023-08-07T05:10:47.342Z,11.90
2023-08-07T05:12:49.692Z,12.00
2023-08-07T05:14:51.780Z,12.00
2023-08-07T05:16:53.584Z,12.00
2023-08-07T05:18:55.406Z,12.00
2023-08-07T05:20:57.220Z,12.10
2023-08-07T05:22:59.008Z,12.00
2023-08-07T05:25:00.792Z,12.00
2023-08-07T05:27:02.653Z,12.00
2023-08-07T05:29:05.104Z,12.00
2023-08-07T05:31:06.975Z,12.10
2023-08-07T05:33:08.795Z,12.10
2023-08-07T05:35:10.609Z,12.10
2023-08-07T05:37:12.424Z,12.00
2023-08-07T05:39:14.532Z,12.20
2023-08-07T05:41:17.482Z,12.10
2023-08-07T05:43:19.357Z,12.20
2023-08-07T05:45:21.111Z,12.20
2023-08-07T05:47:23.372Z,12.20
2023-08-07T05:49:26.564Z,12.10
2023-08-07T05:51:28.595Z,12.20
2023-08-07T05:53:30.938Z,12.20
2023-08-07T05:55:32.842Z,12.20
2023-08-07T05:57:35.286Z,12.20
2023-08-07T05:59:37.610Z,12.20
2023-08-07T06:01:39.462Z,12.20
2023-08-07T06:03:41.280Z,12.20
2023-08-07T06:05:43.208Z,12.20
2023-08-07T06:07:44.993Z,12.20
2023-08-07T06:09:47.138Z,12.20
2023-08-07T06:11:49.466Z,12.20
2023-08-07T06:13:51.269Z,12.30
2023-08-07T06:15:53.074Z,12.20
2023-08-07T06:17:54.957Z,12.20
2023-08-07T06:19:56.767Z,12.20
2023-08-07T06:21:59.039Z,12.20
2023-08-07T06:24:01.104Z,12.20
2023-08-07T06:26:06.123Z,12.20
2023-08-07T06:28:07.890Z,12.20
2023-08-07T06:30:10.252Z,12.20
2023-08-07T06:32:12.215Z,12.30
2023-08-07T06:34:13.975Z,12.30
2023-08-07T06:36:15.840Z,12.30
2023-08-07T06:38:17.613Z,12.40
2023-08-07T06:40:19.392Z,12.40
2023-08-07T06:42:21.165Z,12.40
2023-08-07T06:44:23.028Z,12.40
2023-08-07T06:46:29.013Z,12.50
2023-08-07T06:48:30.953Z,12.50
2023-08-07T06:50:32.769Z,12.60
2023-08-07T06:52:34.575Z,12.60
2023-08-07T06:54:36.345Z,12.60
2023-08-07T06:56:41.982Z,12.60
2023-08-07T06:58:43.792Z,12.70
2023-08-07T07:00:45.587Z,12.80
2023-08-07T07:02:47.398Z,12.90
2023-08-07T07:04:49.200Z,12.80
2023-08-07T07:06:51.078Z,12.90
2023-08-07T07:08:56.403Z,13.00
2023-08-07T07:10:59.497Z,13.00
2023-08-07T07:13:01.519Z,13.00
2023-08-07T07:15:03.634Z,13.10
2023-08-07T07:17:05.689Z,13.20
2023-08-07T07:19:09.526Z,13.30
2023-08-07T07:21:11.317Z,13.40
2023-08-07T07:23:13.157Z,13.50
2023-08-07T07:25:14.986Z,13.50
2023-08-07T07:27:16.818Z,13.70
2023-08-07T07:29:19.790Z,13.80
2023-08-07T07:31:21.629Z,13.90
2023-08-07T07:33:23.422Z,14.00
2023-08-07T07:35:25.535Z,14.10
2023-08-07T07:37:27.322Z,14.10
2023-08-07T07:39:29.112Z,14.20
2023-08-07T07:41:30.933Z,14.30
2023-08-07T07:43:32.979Z,14.40
2023-08-07T07:45:37.230Z,14.40
2023-08-07T07:47:39.139Z,14.40
2023-08-07T07:49:46.597Z,14.40
2023-08-07T07:51:49.832Z,14.50
2023-08-07T07:54:11.968Z,14.50
2023-08-07T07:56:13.627Z,14.50
2023-08-07T07:58:15.386Z,14.60
2023-08-07T08:00:17.357Z,14.50
2023-08-07T08:02:19.157Z,14.50
2023-08-07T08:04:21.007Z,14.40
2023-08-07T08:06:23.021Z,14.40
2023-08-07T08:08:26.405Z,14.40
2023-08-07T08:10:30.353Z,14.40
2023-08-07T08:12:32.551Z,14.30
2023-08-07T08:14:46.919Z,14.30
2023-08-07T08:16:56.344Z,14.30
2023-08-07T08:18:58.229Z,14.30
2023-08-07T08:21:00.040Z,14.30
2023-08-07T08:23:01.837Z,14.30
2023-08-07T08:25:05.561Z,14.30
2023-08-07T08:27:07.656Z,14.40
2023-08-07T08:29:09.434Z,14.30
2023-08-07T08:31:11.383Z,14.30
2023-08-07T08:33:15.613Z,14.40
2023-08-07T08:35:17.635Z,14.50
2023-08-07T08:37:19.398Z,14.50
2023-08-07T08:39:21.275Z,14.50
2023-08-07T08:41:23.820Z,14.40
2023-08-07T08:43:27.500Z,14.30
2023-08-07T08:45:37.854Z,14.40
2023-08-07T08:47:41.327Z,14.30
2023-08-07T08:49:48.366Z,14.40
2023-08-07T08:51:51.574Z,14.40
2023-08-07T08:53:54.866Z,14.40
2023-08-07T08:55:56.704Z,14.40
2023-08-07T08:58:01.837Z,14.30
2023-08-07T09:00:16.103Z,14.30
2023-08-07T09:02:18.608Z,14.30
2023-08-07T09:04:20.472Z,14.40
2023-08-07T09:06:22.923Z,14.30
2023-08-07T09:08:27.589Z,14.30
2023-08-07T09:10:30.033Z,14.40
2023-08-07T09:12:34.690Z,14.40
2023-08-07T09:14:38.340Z,14.40
2023-08-07T09:16:40.532Z,14.40
2023-08-07T09:18:42.564Z,14.40
2023-08-07T09:20:44.619Z,14.30
2023-08-07T09:22:47.282Z,14.40
2023-08-07T09:24:50.538Z,14.50
2023-08-07T09:26:54.892Z,14.60
2023-08-07T09:28:59.088Z,14.60
2023-08-07T09:31:02.949Z,14.60
2023-08-07T09:33:05.471Z,14.60
2023-08-07T09:35:08.975Z,14.70
2023-08-07T09:37:11.172Z,14.70
2023-08-07T09:39:13.412Z,14.70
2023-08-07T09:41:19.243Z,14.80
2023-08-07T09:43:24.123Z,14.70
2023-08-07T09:45:27.827Z,14.70
2023-08-07T09:47:30.240Z,14.70
2023-08-07T09:49:35.236Z,14.70
2023-08-07T09:51:47.575Z,14.60
2023-08-07T09:53:50.056Z,14.70
2023-08-07T09:55:54.106Z,14.70
2023-08-07T09:57:56.219Z,14.80
2023-08-07T09:59:58.056Z,14.90
2023-08-07T10:02:03.195Z,15.00
2023-08-07T10:04:06.682Z,15.10
2023-08-07T10:06:09.645Z,15.20
2023-08-07T10:08:14.272Z,15.20
2023-08-07T10:10:16.999Z,15.20
2023-08-07T10:12:19.250Z,15.30
2023-08-07T10:14:22.866Z,15.30
2023-08-07T10:16:26.752Z,15.30
2023-08-07T10:18:28.657Z,15.40
2023-08-07T10:20:31.185Z,15.50
2023-08-07T10:22:34.943Z,15.60
2023-08-07T10:24:40.552Z,15.70
2023-08-07T10:26:47.197Z,15.90
2023-08-07T10:28:52.468Z,16.00
2023-08-07T10:30:54.925Z,16.00
2023-08-07T10:40:09.021Z,16.20
2023-08-07T10:42:13.193Z,16.20
2023-08-07T10:44:26.245Z,16.20
2023-08-07T10:46:27.971Z,16.50
2023-08-07T10:48:29.860Z,16.40
2023-08-07T10:50:33.615Z,16.30
2023-08-07T10:52:39.962Z,16.50
2023-08-07T10:54:47.160Z,16.40
2023-08-07T10:56:55.066Z,16.40
2023-08-07T10:58:57.258Z,16.30
2023-08-07T11:01:20.850Z,16.30
2023-08-07T11:03:29.196Z,16.20
2023-08-07T11:05:32.315Z,16.20
2023-08-07T11:07:34.213Z,16.20
2023-08-07T11:09:36.458Z,16.30
2023-08-07T11:11:44.262Z,16.40
2023-08-07T11:13:46.332Z,16.40
2023-08-07T11:15:48.640Z,16.40
2023-08-07T11:17:50.537Z,16.40
2023-08-07T11:19:52.440Z,16.50
2023-08-07T11:21:55.677Z,16.60
2023-08-07T11:23:57.603Z,16.70
2023-08-07T11:25:59.390Z,16.70
2023-08-07T11:28:01.149Z,16.80
2023-08-07T11:30:03.354Z,16.90
2023-08-07T11:32:05.924Z,16.90
2023-08-07T11:34:07.802Z,16.90
2023-08-07T11:36:13.975Z,16.90
2023-08-07T11:38:38.122Z,16.90
2023-08-07T11:40:39.993Z,16.80
2023-08-07T11:42:42.249Z,16.80
2023-08-07T11:44:44.228Z,16.80
2023-08-07T11:46:46.681Z,16.90
2023-08-07T11:48:48.527Z,16.90
2023-08-07T11:50:50.379Z,16.90
2023-08-07T11:52:52.277Z,17.00
2023-08-07T11:54:54.496Z,17.10
2023-08-07T11:56:56.538Z,17.20
2023-08-07T11:58:59.043Z,17.30
2023-08-07T12:01:05.649Z,17.30
2023-08-07T12:03:31.528Z,17.30
2023-08-07T12:05:41.930Z,17.30
2023-08-07T12:07:44.183Z,17.30
2023-08-07T12:09:46.446Z,17.30
2023-08-07T12:11:48.255Z,17.30
2023-08-07T12:13:50.833Z,17.30
2023-08-07T12:15:54.916Z,17.30
2023-08-07T12:18:03.313Z,17.20
2023-08-07T12:20:08.798Z,17.00
2023-08-07T12:22:12.337Z,16.90
2023-08-07T12:24:14.536Z,16.80
2023-08-07T12:26:17.480Z,16.70
2023-08-07T12:28:19.717Z,16.70
2023-08-07T12:30:21.516Z,16.60
2023-08-07T12:32:23.367Z,16.60
2023-08-07T12:36:30.049Z,16.50
2023-08-07T12:38:31.911Z,16.60
2023-08-07T12:40:36.752Z,16.70
2023-08-07T12:42:38.673Z,16.80
2023-08-07T12:44:40.685Z,17.00
2023-08-07T12:46:42.502Z,17.20
2023-08-07T12:48:44.269Z,17.40
2023-08-07T12:50:46.061Z,17.50
2023-08-07T12:52:48.010Z,17.60
2023-08-07T12:54:49.818Z,17.80
2023-08-07T12:56:51.919Z,17.90
2023-08-07T12:58:53.742Z,17.90
2023-08-07T13:00:55.705Z,18.00
2023-08-07T13:02:57.628Z,18.00
2023-08-07T13:04:59.536Z,18.00
2023-08-07T13:07:01.625Z,18.00
2023-08-07T13:09:04.548Z,17.90
2023-08-07T13:11:06.469Z,17.90
2023-08-07T13:13:08.259Z,17.90
2023-08-07T13:15:14.113Z,17.90
2023-08-07T13:17:16.002Z,17.90
2023-08-07T13:19:18.111Z,17.80
2023-08-07T13:21:19.875Z,17.80
2023-08-07T13:23:21.732Z,17.70
2023-08-07T13:25:23.547Z,17.80
2023-08-07T13:27:25.368Z,17.80
2023-08-07T13:29:30.637Z,18.00
2023-08-07T13:31:32.548Z,18.00
2023-08-07T13:33:34.430Z,18.10
2023-08-07T13:35:36.229Z,18.30
2023-08-07T13:37:39.017Z,18.40
2023-08-07T13:39:41.258Z,18.60
2023-08-07T13:41:43.123Z,18.60
2023-08-07T13:43:44.951Z,18.60
2023-08-07T13:45:47.024Z,18.60
2023-08-07T13:47:48.987Z,18.50
2023-08-07T13:49:50.941Z,18.50
2023-08-07T13:51:52.822Z,18.30
2023-08-07T13:53:54.662Z,18.20
2023-08-07T13:55:56.487Z,18.00
2023-08-07T13:57:58.261Z,17.90
2023-08-07T14:00:00.006Z,17.90
2023-08-07T14:02:01.977Z,17.80
2023-08-07T14:04:04.124Z,17.70
2023-08-07T14:06:05.990Z,17.60
2023-08-07T14:08:07.880Z,17.60
2023-08-07T14:10:09.692Z,17.60
2023-08-07T14:12:11.658Z,17.70
2023-08-07T14:14:13.449Z,17.80
2023-08-07T14:16:15.411Z,18.00
2023-08-07T14:18:17.330Z,18.10
2023-08-07T14:20:19.353Z,18.10
2023-08-07T14:22:21.150Z,18.10
2023-08-07T14:24:23.018Z,18.10
2023-08-07T14:26:24.926Z,18.00
2023-08-07T14:28:28.505Z,17.90
2023-08-07T14:30:30.323Z,17.90
2023-08-07T14:32:32.220Z,17.90
2023-08-07T14:34:34.131Z,17.90
2023-08-07T14:36:37.220Z,17.90
2023-08-07T14:38:39.010Z,17.90
2023-08-07T14:40:42.286Z,17.80
2023-08-07T14:42:44.146Z,17.80
2023-08-07T14:44:45.893Z,17.60
2023-08-07T14:46:47.722Z,17.60
2023-08-07T14:48:49.578Z,17.50
2023-08-07T14:50:52.005Z,17.40
2023-08-07T14:52:53.769Z,17.40
2023-08-07T14:54:58.438Z,17.40
2023-08-07T14:57:00.265Z,17.30
2023-08-07T14:59:02.024Z,17.30
2023-08-07T15:01:03.844Z,17.40
2023-08-07T15:03:05.692Z,17.30
2023-08-07T15:05:07.842Z,17.30
2023-08-07T15:07:09.715Z,17.10
2023-08-07T15:09:11.426Z,17.00
2023-08-07T15:11:13.222Z,17.00
2023-08-07T15:13:15.002Z,17.20
2023-08-07T15:15:16.814Z,16.90
2023-08-07T15:17:18.605Z,16.90
2023-08-07T15:19:20.376Z,16.80
2023-08-07T15:21:22.164Z,16.80
2023-08-07T15:23:24.104Z,16.80
2023-08-07T15:25:26.130Z,16.80
2023-08-07T15:27:27.914Z,16.80
2023-08-07T15:29:29.689Z,16.80
2023-08-07T15:31:31.507Z,16.80
2023-08-07T15:33:33.305Z,16.70
2023-08-07T15:35:35.156Z,16.70
2023-08-07T15:37:36.950Z,16.70
2023-08-07T15:39:38.797Z,16.70
2023-08-07T15:41:40.586Z,16.60
2023-08-07T15:43:42.398Z,16.60
2023-08-07T15:45:47.583Z,16.70
2023-08-07T15:47:49.536Z,16.70
2023-08-07T15:49:51.445Z,16.80
2023-08-07T15:51:53.247Z,16.80
2023-08-07T15:53:55.129Z,16.90
2023-08-07T15:55:56.937Z,16.90
2023-08-07T15:57:59.191Z,16.90
2023-08-07T16:00:01.105Z,16.90
2023-08-07T16:02:05.013Z,16.80
2023-08-07T16:04:08.269Z,16.70
2023-08-07T16:06:10.130Z,16.70
2023-08-07T16:08:12.265Z,16.60
2023-08-07T16:10:14.075Z,16.60
2023-08-07T16:12:18.392Z,16.50
2023-08-07T16:14:20.197Z,16.40
2023-08-07T16:16:22.000Z,16.40
2023-08-07T16:18:24.016Z,16.30
2023-08-07T16:20:25.836Z,16.20
2023-08-07T16:22:27.699Z,16.20
2023-08-07T16:24:29.525Z,16.10
2023-08-07T16:26:31.305Z,16.00
2023-08-07T16:28:33.075Z,16.00
2023-08-07T16:30:34.997Z,16.00
2023-08-07T16:32:39.286Z,15.90
2023-08-07T16:34:41.177Z,15.90
2023-08-07T16:36:43.044Z,15.90
2023-08-07T16:38:44.900Z,15.80
2023-08-07T16:40:46.760Z,15.70
2023-08-07T16:42:48.550Z,15.70
2023-08-07T16:44:50.844Z,15.60
2023-08-07T16:46:52.688Z,15.50
2023-08-07T16:48:54.468Z,15.50
2023-08-07T16:51:12.874Z,15.50
2023-08-07T16:53:17.232Z,15.50
2023-08-07T16:55:18.981Z,15.40
2023-08-07T16:57:21.681Z,15.50
2023-08-07T16:59:23.687Z,15.50
2023-08-07T17:01:25.541Z,15.50
2023-08-07T17:03:27.594Z,15.50
2023-08-07T17:05:30.087Z,15.60
2023-08-07T17:07:31.861Z,15.60
2023-08-07T17:09:34.053Z,15.70
2023-08-07T17:11:36.090Z,15.70
2023-08-07T17:13:38.041Z,15.70
2023-08-07T17:15:39.841Z,15.70
2023-08-07T17:17:42.079Z,15.70
2023-08-07T17:19:43.922Z,15.80
2023-08-07T17:21:45.712Z,15.80
2023-08-07T17:23:47.563Z,15.80
2023-08-07T17:25:49.353Z,15.80
2023-08-07T17:27:51.119Z,15.70
2023-08-07T17:29:55.036Z,15.70
2023-08-07T17:31:59.037Z,15.80
2023-08-07T17:34:00.897Z,15.80
2023-08-07T17:36:03.045Z,15.80
2023-08-07T17:38:05.267Z,15.70
2023-08-07T17:40:07.617Z,15.80
2023-08-07T17:42:10.523Z,15.80
2023-08-07T17:44:12.265Z,15.80
2023-08-07T17:46:14.064Z,15.80
2023-08-07T17:48:15.862Z,15.70
2023-08-07T17:50:17.713Z,15.60
2023-08-07T17:52:19.517Z,15.60
2023-08-07T17:54:21.276Z,15.60
2023-08-07T17:56:24.522Z,15.60
2023-08-07T17:58:26.383Z,15.60
2023-08-07T18:00:28.154Z,15.60
2023-08-07T18:02:29.972Z,15.60
2023-08-07T18:04:32.352Z,15.60
2023-08-07T18:06:34.264Z,15.50
2023-08-07T18:08:36.075Z,15.50
2023-08-07T18:10:37.906Z,15.50
2023-08-07T18:12:39.690Z,15.50
2023-08-07T18:14:41.851Z,15.40
2023-08-07T18:16:43.763Z,15.50
2023-08-07T18:18:45.954Z,15.50
2023-08-07T18:20:47.945Z,15.40
2023-08-07T18:22:49.733Z,15.40
2023-08-07T18:24:51.624Z,15.30
2023-08-07T18:26:53.580Z,15.30
2023-08-07T18:28:56.456Z,15.30
2023-08-07T18:30:59.068Z,15.30
2023-08-07T18:33:00.932Z,15.20
2023-08-07T18:35:02.793Z,15.20
2023-08-07T18:37:04.874Z,15.20
2023-08-07T18:39:07.165Z,15.20
2023-08-07T18:41:08.979Z,15.10
2023-08-07T18:43:10.841Z,15.10
2023-08-07T18:45:12.722Z,15.10
2023-08-07T18:47:14.524Z,15.10
2023-08-07T18:49:16.760Z,15.00
2023-08-07T18:51:18.608Z,15.00
2023-08-07T18:53:20.440Z,15.00
2023-08-07T18:55:22.276Z,15.00
2023-08-07T18:57:24.041Z,15.00
2023-08-07T18:59:25.834Z,14.90
2023-08-07T19:01:27.606Z,14.90
2023-08-07T19:03:29.486Z,14.90
2023-08-07T19:05:31.453Z,14.90
2023-08-07T19:07:33.258Z,14.80
2023-08-07T19:09:35.084Z,14.90
2023-08-07T19:11:36.956Z,14.80
2023-08-07T19:13:38.760Z,14.80
2023-08-07T19:15:40.528Z,14.70
2023-08-07T19:17:42.510Z,14.70
2023-08-07T19:19:44.288Z,14.70
2023-08-07T19:21:46.048Z,14.70
2023-08-07T19:23:47.831Z,14.60
2023-08-07T19:25:49.716Z,14.70
2023-08-07T19:27:51.550Z,14.70
2023-08-07T19:29:54.695Z,14.60
2023-08-07T19:31:56.561Z,14.60
2023-08-07T19:33:58.431Z,14.60
2023-08-07T19:36:00.190Z,14.60
2023-08-07T19:38:02.020Z,14.50
2023-08-07T19:40:08.120Z,14.60
2023-08-07T19:42:10.006Z,14.50
2023-08-07T19:44:11.812Z,14.50
2023-08-07T19:46:13.595Z,14.50
2023-08-07T19:48:15.493Z,14.50
2023-08-07T19:50:17.626Z,14.50
2023-08-07T19:52:19.532Z,14.50
2023-08-07T19:54:21.326Z,14.50
2023-08-07T19:56:23.602Z,14.50
2023-08-07T19:58:25.441Z,14.40
2023-08-07T20:00:27.189Z,14.40
2023-08-07T20:02:28.932Z,14.40
2023-08-07T20:04:30.964Z,14.40
2023-08-07T20:06:32.800Z,14.40
2023-08-07T20:08:34.645Z,14.40
2023-08-07T20:10:36.530Z,14.40
2023-08-07T20:12:39.627Z,14.40
2023-08-07T20:14:41.393Z,14.30
2023-08-07T20:16:43.181Z,14.30
2023-08-07T20:18:44.999Z,14.30
2023-08-07T20:20:46.759Z,14.20
2023-08-07T20:22:49.031Z,14.20
2023-08-07T20:24:50.827Z,14.20
2023-08-07T20:26:52.626Z,14.10
2023-08-07T20:28:56.210Z,14.20
2023-08-07T20:30:58.105Z,14.10
2023-08-07T20:33:00.000Z,14.10
2023-08-07T20:35:01.808Z,14.10
2023-08-07T20:37:05.211Z,14.00
2023-08-07T20:39:07.846Z,14.00
2023-08-07T20:41:09.593Z,14.00
2023-08-07T20:43:11.428Z,14.00
2023-08-07T20:45:13.345Z,14.00
2023-08-07T20:47:15.353Z,13.90
2023-08-07T20:49:17.349Z,13.90
2023-08-07T20:51:20.034Z,13.80
2023-08-07T20:53:23.091Z,13.80
2023-08-07T20:55:24.837Z,13.80
2023-08-07T20:57:26.963Z,13.70
2023-08-07T20:59:29.205Z,13.70
2023-08-07T21:01:31.013Z,13.70
2023-08-07T21:03:32.836Z,13.70
2023-08-07T21:05:34.651Z,13.60
2023-08-07T21:07:36.444Z,13.60
2023-08-07T21:09:38.265Z,13.60
2023-08-07T21:11:40.121Z,13.60
2023-08-07T21:13:41.897Z,13.60
2023-08-07T21:15:43.784Z,13.60
2023-08-07T21:17:45.599Z,13.60
2023-08-07T21:19:48.751Z,13.60
2023-08-07T21:21:50.568Z,13.60
2023-08-07T21:23:52.643Z,13.60
2023-08-07T21:25:54.450Z,13.60
2023-08-07T21:27:56.484Z,13.60
2023-08-07T21:29:58.213Z,13.60
2023-08-07T21:32:00.502Z,13.60
2023-08-07T21:34:03.702Z,13.60
2023-08-07T21:36:05.901Z,13.60
2023-08-07T21:38:08.786Z,13.50
2023-08-07T21:40:11.224Z,13.60
2023-08-07T21:42:12.980Z,13.60
2023-08-07T21:44:14.787Z,13.60
2023-08-07T21:46:16.539Z,13.50
2023-08-07T21:48:18.411Z,13.60
2023-08-07T21:50:20.722Z,13.60
2023-08-07T21:52:22.492Z,13.60
2023-08-07T21:54:24.281Z,13.60
2023-08-07T21:56:26.101Z,13.60
2023-08-07T21:58:27.902Z,13.60
2023-08-07T22:00:29.728Z,13.60
2023-08-07T22:02:31.627Z,13.60
2023-08-07T22:04:33.735Z,13.60
2023-08-07T22:06:35.503Z,13.60
2023-08-07T22:08:37.328Z,13.60
2023-08-07T22:10:39.089Z,13.60
2023-08-07T22:12:40.865Z,13.60
2023-08-07T22:14:42.635Z,13.70
2023-08-07T22:16:44.426Z,13.60
2023-08-07T22:18:46.236Z,13.60
2023-08-07T22:20:48.158Z,13.70
2023-08-07T22:22:49.968Z,13.70
2023-08-07T22:24:51.813Z,13.70
2023-08-07T22:26:53.545Z,13.70
2023-08-07T22:28:55.326Z,13.70
2023-08-07T22:30:57.078Z,13.70
2023-08-07T22:32:59.490Z,13.70
2023-08-07T22:35:01.963Z,13.70
2023-08-07T22:37:03.990Z,13.70
2023-08-07T22:39:05.804Z,13.70
2023-08-07T22:41:08.291Z,13.70
2023-08-07T22:43:11.665Z,13.70
2023-08-07T22:45:14.631Z,13.70
2023-08-07T22:47:16.419Z,13.70
2023-08-07T22:49:20.829Z,13.70
2023-08-07T22:51:22.708Z,13.70
2023-08-07T22:53:24.618Z,13.70
2023-08-07T22:55:26.423Z,13.70
2023-08-07T22:57:28.168Z,13.70
2023-08-07T22:59:29.968Z,13.70
2023-08-07T23:01:31.788Z,13.70
2023-08-07T23:03:33.741Z,13.70
2023-08-07T23:05:35.547Z,13.70
2023-08-07T23:07:37.637Z,13.70
2023-08-07T23:09:39.472Z,13.70
2023-08-07T23:11:41.263Z,13.60
2023-08-07T23:13:45.520Z,13.70
2023-08-07T23:15:48.156Z,13.60
2023-08-07T23:17:50.035Z,13.60
2023-08-07T23:19:51.889Z,13.50
2023-08-07T23:21:53.664Z,13.50
2023-08-07T23:23:55.441Z,13.40
2023-08-07T23:25:57.162Z,13.40
2023-08-07T23:27:58.918Z,13.40
2023-08-07T23:30:01.026Z,13.40
2023-08-07T23:32:02.875Z,13.30
2023-08-07T23:34:04.998Z,13.30
2023-08-07T23:36:06.825Z,13.30
2023-08-07T23:38:08.590Z,13.30
2023-08-07T23:40:10.790Z,13.20
2023-08-07T23:42:12.606Z,13.20
2023-08-07T23:44:14.434Z,13.10
2023-08-07T23:46:16.222Z,13.10
2023-08-07T23:48:18.066Z,13.10
2023-08-07T23:50:19.886Z,13.00
2023-08-07T23:52:21.686Z,13.00
2023-08-07T23:54:23.659Z,13.00
2023-08-07T23:56:25.565Z,12.90
2023-08-07T23:58:27.426Z,12.90
